CYXE

Saskatoon John G. Diefenbaker International Airport

Saskatoon, Saskatchewan, Canada
METAR CYXE 152000Z 30027G33KT 15SM SCT060 BKN260 22/06 A3003 RMK CU3CI2 SLP177 DENSITY ALT 2800FT
Observed Flight Rules
Jul-15 @ 20:00 UTC (60 minutes ago) Visual Flight Rules
Wind Visibility Clouds
300° at 27 knots
 Gusting to 33 knots
15 miles
  • Scattered at 6,000' AGL
  • Broken at 26,000' AGL
Temperatures Readings
Current 22°C / 72°F
Dewpoint 6°C / 43°F
Humidity 36%
Altimeter 30.03" Hg
Pressure 1017.7 hPa
Elevation 504
METAR CYXE 152000Z 30027G33KT 15SM SCT060 BKN260 22/06 A3003 RMK CU3CI2 SLP177 DENSITY ALT 2800FT
Observed Flight Rules
Jul-15 @ 20:00 UTC
(60 minutes ago)
VFR
Wind Visibility
300° at 27 knots
 Gusting to 33 knots
15 miles
Clouds
  • Scattered at 6,000' AGL
  • Broken at 26,000' AGL
Temperature Dewpoint
22°C / 72°F 6°C / 43°F
Humidity Altimeter Pressure
36% 30.03" Hg 1017.7 hPa